createdAt,value
2018-04-24T00:00:29.882Z,43.09
2018-04-24T00:02:58.289Z,42.68
2018-04-24T00:05:26.689Z,42.80
2018-04-24T00:07:55.166Z,43.61
2018-04-24T00:10:23.538Z,43.74
2018-04-24T00:12:51.902Z,43.82
2018-04-24T00:15:20.254Z,43.99
2018-04-24T00:17:48.596Z,44.05
2018-04-24T00:20:17.455Z,44.63
2018-04-24T00:22:45.937Z,44.18
2018-04-24T00:25:14.282Z,43.97
2018-04-24T00:27:42.689Z,44.34
2018-04-24T00:30:11.041Z,45.34
2018-04-24T00:32:39.413Z,44.89
2018-04-24T00:35:07.754Z,44.97
2018-04-24T00:37:36.118Z,45.08
2018-04-24T00:40:04.496Z,45.45
2018-04-24T00:42:32.852Z,45.29
2018-04-24T00:45:01.213Z,45.36
2018-04-24T00:47:29.575Z,44.90
2018-04-24T00:49:57.918Z,44.83
2018-04-24T00:52:26.377Z,44.96
2018-04-24T00:54:54.753Z,44.87
2018-04-24T00:57:23.196Z,45.24
2018-04-24T00:59:51.554Z,45.11
2018-04-24T01:02:20.307Z,45.28
2018-04-24T01:04:48.661Z,45.74
2018-04-24T01:07:17.023Z,45.57
2018-04-24T01:09:45.454Z,45.47
2018-04-24T01:12:13.834Z,45.11
2018-04-24T01:14:42.184Z,45.15
2018-04-24T01:17:10.534Z,45.12
2018-04-24T01:19:38.902Z,45.53
2018-04-24T01:22:07.746Z,46.11
2018-04-24T01:24:36.222Z,46.68
2018-04-24T01:27:04.576Z,46.53
2018-04-24T01:29:32.930Z,46.06
2018-04-24T01:32:01.696Z,46.32
2018-04-24T01:34:30.057Z,46.03
2018-04-24T01:36:58.429Z,46.13
2018-04-24T01:39:26.811Z,46.68
2018-04-24T01:47:50.514Z,47.53
2018-04-24T01:50:18.884Z,46.89
2018-04-24T01:52:47.301Z,46.82
2018-04-24T01:55:15.662Z,46.34
2018-04-24T01:57:44.022Z,46.22
2018-04-24T02:00:12.442Z,46.33
2018-04-24T02:02:40.836Z,46.00
2018-04-24T02:05:09.585Z,46.58
2018-04-24T02:07:38.063Z,46.58
2018-04-24T02:10:06.434Z,46.43
2018-04-24T02:12:34.798Z,45.93
2018-04-24T02:15:03.184Z,46.44
2018-04-24T02:17:31.537Z,46.01
2018-04-24T02:19:59.893Z,46.01
2018-04-24T02:28:23.769Z,46.48
2018-04-24T02:30:52.143Z,45.67
2018-04-24T02:33:20.686Z,45.83
2018-04-24T02:35:49.110Z,45.16
2018-04-24T02:38:17.467Z,44.67
2018-04-24T02:40:45.823Z,44.20
2018-04-24T02:43:14.195Z,43.92
2018-04-24T02:45:42.619Z,42.92
2018-04-24T02:48:10.997Z,43.60
2018-04-24T02:50:39.377Z,44.55
2018-04-24T02:53:07.771Z,44.46
2018-04-24T02:55:36.142Z,44.62
2018-04-24T02:58:04.525Z,44.71
2018-04-24T03:00:32.891Z,45.14
2018-04-24T03:03:01.349Z,44.77
2018-04-24T03:05:29.718Z,45.00
2018-04-24T03:07:58.070Z,45.11
2018-04-24T03:10:26.842Z,45.71
2018-04-24T03:12:55.330Z,46.88
2018-04-24T03:15:23.681Z,47.37
2018-04-24T03:17:52.051Z,47.43
2018-04-24T03:20:20.428Z,47.16
2018-04-24T03:22:48.923Z,47.87
2018-04-24T03:25:17.275Z,48.14
2018-04-24T03:27:45.661Z,48.11
2018-04-24T03:30:14.057Z,47.84
2018-04-24T03:32:42.414Z,48.54
2018-04-24T03:35:10.803Z,48.61
2018-04-24T03:37:39.167Z,48.89
2018-04-24T03:40:07.572Z,49.17
2018-04-24T03:42:35.942Z,49.02
2018-04-24T03:45:04.358Z,49.14
2018-04-24T03:47:32.735Z,49.29
2018-04-24T03:50:01.098Z,49.38
2018-04-24T03:52:29.486Z,49.88
2018-04-24T03:54:57.870Z,49.68
2018-04-24T03:57:26.328Z,50.00
2018-04-24T03:59:54.833Z,50.31
2018-04-24T04:02:23.306Z,49.82
2018-04-24T04:04:51.661Z,49.53
2018-04-24T04:07:20.055Z,49.72
2018-04-24T04:09:48.447Z,49.31
2018-04-24T04:12:16.834Z,49.51
2018-04-24T04:14:45.214Z,49.31
2018-04-24T04:17:31.440Z,49.44
2018-04-24T04:20:17.390Z,49.16
2018-04-24T04:26:12.284Z,49.32
2018-04-24T04:28:40.697Z,48.44
2018-04-24T04:31:09.051Z,47.91
2018-04-24T04:33:52.070Z,47.75
2018-04-24T04:36:20.419Z,47.47
2018-04-24T04:38:48.762Z,47.25
2018-04-24T04:41:17.607Z,47.64
2018-04-24T04:43:46.007Z,48.35
2018-04-24T04:46:14.378Z,47.43
2018-04-24T04:48:42.771Z,47.47
2018-04-24T04:51:11.130Z,47.82
2018-04-24T04:53:39.506Z,47.22
2018-04-24T04:56:07.939Z,46.54
2018-04-24T04:58:36.264Z,45.52
2018-04-24T05:01:04.623Z,45.57
2018-04-24T05:03:33.027Z,44.92
2018-04-24T05:06:01.410Z,45.43
2018-04-24T05:08:29.816Z,45.43
2018-04-24T05:10:59.342Z,44.85
2018-04-24T05:13:28.290Z,45.57
2018-04-24T05:15:56.661Z,45.22
2018-04-24T05:18:25.027Z,45.41
2018-04-24T05:20:53.385Z,45.51
2018-04-24T05:23:21.773Z,45.00
2018-04-24T05:25:50.179Z,45.44
2018-04-24T05:28:18.538Z,45.08
2018-04-24T05:30:46.928Z,45.69
2018-04-24T05:33:15.323Z,46.43
2018-04-24T05:35:43.748Z,46.17
2018-04-24T05:38:12.129Z,45.62
2018-04-24T05:40:40.962Z,45.01
2018-04-24T05:43:09.331Z,44.17
2018-04-24T05:45:37.728Z,43.87
2018-04-24T05:48:06.205Z,43.83
2018-04-24T05:50:34.566Z,43.32
2018-04-24T05:53:02.955Z,42.98
2018-04-24T05:55:31.310Z,42.31
2018-04-24T05:57:59.670Z,41.53
2018-04-24T06:00:28.451Z,41.34
2018-04-24T06:02:57.227Z,40.81
2018-04-24T06:05:25.646Z,40.62
2018-04-24T06:07:54.046Z,40.60
2018-04-24T06:10:22.409Z,40.70
2018-04-24T06:12:50.827Z,42.24
2018-04-24T06:15:19.302Z,42.06
2018-04-24T06:17:47.654Z,42.71
2018-04-24T06:20:16.047Z,41.44
2018-04-24T06:22:44.401Z,40.86
2018-04-24T06:25:12.784Z,39.92
2018-04-24T06:27:41.139Z,40.25
2018-04-24T06:30:09.971Z,39.81
2018-04-24T06:32:38.353Z,39.09
2018-04-24T06:35:06.737Z,38.34
2018-04-24T06:37:35.092Z,37.94
2018-04-24T06:40:03.498Z,36.83
2018-04-24T06:42:31.874Z,37.18
2018-04-24T06:45:00.252Z,36.04
2018-04-24T06:47:28.731Z,34.49
2018-04-24T06:49:57.086Z,33.59
2018-04-24T06:52:25.441Z,33.28
2018-04-24T06:54:53.935Z,32.92
2018-04-24T06:57:22.325Z,32.03
2018-04-24T06:59:50.691Z,30.94
2018-04-24T07:02:19.086Z,28.31
2018-04-24T07:04:47.474Z,26.05
2018-04-24T07:07:15.846Z,24.12
2018-04-24T07:09:44.217Z,22.03
2018-04-24T07:12:12.588Z,20.11
2018-04-24T07:14:40.937Z,19.32
2018-04-24T07:17:09.710Z,18.34
2018-04-24T07:19:38.078Z,17.47
2018-04-24T07:22:06.446Z,17.04
2018-04-24T07:24:34.827Z,16.33
2018-04-24T07:27:03.211Z,17.34
2018-04-24T07:29:31.571Z,18.06
2018-04-24T07:31:59.963Z,17.77
2018-04-24T07:34:28.443Z,19.47
2018-04-24T07:36:56.794Z,18.41
2018-04-24T07:39:25.174Z,17.19
2018-04-24T07:41:53.575Z,16.45
2018-04-24T07:44:21.927Z,16.21
2018-04-24T07:46:50.358Z,15.52
2018-04-24T07:49:18.730Z,15.45
2018-04-24T07:51:47.163Z,16.14
2018-04-24T07:54:15.555Z,16.07
2018-04-24T07:56:43.919Z,16.25
2018-04-24T07:59:12.327Z,15.60
2018-04-24T08:01:40.719Z,15.34
2018-04-24T08:04:09.088Z,15.26
2018-04-24T08:06:37.475Z,14.99
2018-04-24T08:09:05.856Z,15.17
2018-04-24T08:11:34.221Z,16.10
2018-04-24T08:14:02.579Z,16.97
2018-04-24T08:16:30.965Z,16.96
2018-04-24T08:18:59.337Z,16.57
2018-04-24T08:21:31.630Z,16.66
2018-04-24T08:24:00.011Z,17.18
2018-04-24T08:26:28.373Z,17.14
2018-04-24T08:28:56.760Z,17.00
2018-04-24T08:31:25.125Z,17.11
2018-04-24T08:33:53.489Z,17.34
2018-04-24T08:36:21.881Z,18.27
2018-04-24T08:38:50.293Z,18.39
2018-04-24T08:41:18.657Z,18.11
2018-04-24T08:43:47.038Z,17.19
2018-04-24T08:46:15.528Z,17.14
2018-04-24T08:48:43.861Z,17.13
2018-04-24T08:51:12.255Z,17.08
2018-04-24T08:53:40.632Z,17.46
2018-04-24T08:56:09.113Z,16.80
2018-04-24T08:58:37.487Z,17.35
2018-04-24T09:01:05.846Z,18.99
2018-04-24T09:03:35.549Z,20.90
2018-04-24T09:06:04.326Z,21.31
2018-04-24T09:08:32.742Z,22.09
2018-04-24T09:11:01.071Z,22.32
2018-04-24T09:13:29.458Z,22.38
2018-04-24T09:15:57.827Z,21.81
2018-04-24T09:18:26.182Z,21.80
2018-04-24T09:20:54.576Z,21.24
2018-04-24T09:23:22.938Z,21.21
2018-04-24T09:25:51.303Z,22.10
2018-04-24T09:28:19.739Z,21.87
2018-04-24T09:30:48.187Z,21.76
2018-04-24T09:33:16.619Z,22.12
2018-04-24T09:35:44.982Z,22.29
2018-04-24T09:38:13.742Z,22.62
2018-04-24T09:40:42.107Z,23.47
2018-04-24T09:43:10.477Z,23.67
2018-04-24T09:45:38.827Z,24.16
2018-04-24T09:48:07.173Z,24.62
2018-04-24T09:50:35.645Z,24.90
2018-04-24T09:53:04.006Z,24.79
2018-04-24T09:55:32.374Z,24.40
2018-04-24T09:58:00.767Z,23.56
2018-04-24T10:00:34.500Z,22.79
2018-04-24T10:03:02.881Z,22.15
2018-04-24T10:05:31.638Z,22.00
2018-04-24T10:07:59.990Z,21.82
2018-04-24T10:10:28.433Z,22.89
2018-04-24T10:12:56.889Z,23.74
2018-04-24T10:15:25.250Z,24.07
2018-04-24T10:17:53.625Z,24.87
2018-04-24T10:20:21.977Z,25.52
2018-04-24T10:22:50.340Z,25.64
2018-04-24T10:25:19.125Z,25.16
2018-04-24T10:27:47.875Z,25.67
2018-04-24T10:30:16.283Z,25.52
2018-04-24T10:32:45.085Z,26.13
2018-04-24T10:35:13.839Z,26.82
2018-04-24T10:37:42.194Z,27.35
2018-04-24T10:40:10.684Z,28.58
2018-04-24T10:42:39.046Z,27.69
2018-04-24T10:45:07.428Z,26.98
2018-04-24T10:47:35.819Z,26.69
2018-04-24T10:50:04.170Z,26.58
2018-04-24T10:52:32.529Z,26.28
2018-04-24T10:55:01.369Z,26.13
2018-04-24T10:57:29.839Z,26.58
2018-04-24T10:59:58.215Z,26.98
2018-04-24T11:02:26.655Z,27.53
2018-04-24T11:04:55.453Z,28.16
2018-04-24T11:07:23.876Z,27.73
2018-04-24T11:09:52.275Z,28.33
2018-04-24T11:12:20.731Z,29.28
2018-04-24T11:14:49.146Z,29.71
2018-04-24T11:17:18.039Z,29.96
2018-04-24T11:19:46.790Z,29.85
2018-04-24T11:22:15.146Z,31.18
2018-04-24T11:24:43.547Z,33.58
2018-04-24T11:27:12.285Z,32.88
2018-04-24T11:29:41.054Z,32.56
2018-04-24T11:32:10.083Z,32.10
2018-04-24T11:34:38.453Z,31.60
2018-04-24T11:37:06.812Z,31.29
2018-04-24T11:39:35.587Z,30.82
2018-04-24T11:42:04.042Z,30.63
2018-04-24T11:44:32.503Z,32.00
2018-04-24T11:47:01.218Z,32.34
2018-04-24T11:49:29.600Z,30.96
2018-04-24T11:51:57.934Z,30.48
2018-04-24T11:54:26.312Z,30.14
2018-04-24T11:56:54.677Z,29.88
2018-04-24T11:59:23.431Z,30.48
2018-04-24T12:01:51.802Z,31.03
2018-04-24T12:04:20.178Z,31.72
2018-04-24T12:06:48.544Z,31.90
2018-04-24T12:09:16.974Z,31.45
2018-04-24T12:11:46.416Z,31.25
2018-04-24T12:14:14.775Z,30.99
2018-04-24T12:16:43.173Z,31.12
2018-04-24T12:19:11.576Z,31.07
2018-04-24T12:21:39.933Z,30.20
2018-04-24T12:24:08.317Z,29.87
2018-04-24T12:26:36.670Z,30.45
2018-04-24T12:29:05.037Z,30.90
2018-04-24T12:31:33.414Z,31.18
2018-04-24T12:34:02.193Z,31.36
2018-04-24T12:36:31.035Z,31.51
2018-04-24T12:38:59.419Z,31.35
2018-04-24T12:41:27.773Z,30.85
2018-04-24T12:43:56.182Z,31.13
2018-04-24T12:46:25.582Z,31.69
2018-04-24T12:48:53.939Z,32.40
2018-04-24T12:51:22.288Z,31.86
2018-04-24T12:53:51.054Z,32.45
2018-04-24T12:56:19.406Z,32.71
2018-04-24T12:58:47.760Z,33.14
2018-04-24T13:01:16.143Z,33.77
2018-04-24T13:03:44.638Z,33.98
2018-04-24T13:06:13.407Z,35.22
2018-04-24T13:08:41.791Z,35.13
2018-04-24T13:11:10.149Z,37.82
2018-04-24T13:13:38.562Z,37.48
2018-04-24T13:16:06.957Z,36.87
2018-04-24T13:18:35.408Z,37.11
2018-04-24T13:21:03.805Z,38.24
2018-04-24T13:23:32.190Z,39.17
2018-04-24T13:26:00.563Z,41.25
2018-04-24T13:28:28.918Z,41.34
2018-04-24T13:30:57.299Z,42.81
2018-04-24T13:33:25.662Z,41.43
2018-04-24T13:35:54.070Z,44.56
2018-04-24T13:38:22.489Z,43.41
2018-04-24T13:40:50.960Z,44.08
2018-04-24T13:43:19.430Z,43.06
2018-04-24T13:45:47.860Z,45.13
2018-04-24T13:48:16.278Z,46.48
2018-04-24T13:50:45.454Z,45.95
2018-04-24T13:53:13.875Z,47.62
2018-04-24T13:55:42.225Z,46.78
2018-04-24T13:58:10.593Z,46.58
2018-04-24T14:00:38.973Z,44.65
2018-04-24T14:03:07.335Z,43.45
2018-04-24T14:05:35.697Z,42.65
2018-04-24T14:08:04.542Z,42.01
2018-04-24T14:10:32.894Z,40.83
2018-04-24T14:13:01.314Z,39.83
2018-04-24T14:15:29.677Z,39.59
2018-04-24T14:17:58.018Z,38.95
2018-04-24T14:20:26.398Z,39.25
2018-04-24T14:22:54.812Z,38.81
2018-04-24T14:25:23.168Z,39.41
2018-04-24T14:27:51.515Z,38.27
2018-04-24T14:30:20.295Z,38.18
2018-04-24T14:32:48.650Z,38.35
2018-04-24T14:44:09.182Z,38.06
2018-04-24T14:46:37.546Z,37.18
2018-04-24T14:49:05.918Z,37.74
2018-04-24T14:51:34.354Z,38.55
2018-04-24T14:54:02.664Z,38.44
2018-04-24T14:56:31.471Z,38.75
2018-04-24T14:58:59.883Z,39.12
2018-04-24T15:01:28.233Z,38.47
2018-04-24T15:03:56.622Z,38.48
2018-04-24T15:06:24.977Z,39.01
2018-04-24T15:08:53.327Z,39.37
2018-04-24T15:11:22.191Z,39.76
2018-04-24T15:13:50.534Z,38.95
2018-04-24T15:16:18.953Z,39.85
2018-04-24T15:18:47.364Z,40.72
2018-04-24T15:21:16.122Z,40.67
2018-04-24T15:23:44.513Z,41.00
2018-04-24T15:26:12.966Z,40.55
2018-04-24T15:28:41.322Z,40.92
2018-04-24T15:31:09.728Z,41.98
2018-04-24T15:33:38.109Z,41.79
2018-04-24T15:36:06.490Z,42.65
2018-04-24T15:38:34.878Z,42.77
2018-04-24T15:41:03.258Z,42.27
2018-04-24T15:43:31.718Z,41.97
2018-04-24T15:46:00.074Z,42.06
2018-04-24T15:48:28.485Z,42.46
2018-04-24T15:50:56.830Z,42.62
2018-04-24T15:53:25.177Z,41.99
2018-04-24T15:55:53.998Z,42.07
2018-04-24T15:58:22.363Z,42.18
2018-04-24T16:00:50.718Z,42.64
2018-04-24T16:03:19.541Z,42.43
2018-04-24T16:05:47.899Z,42.42
2018-04-24T16:08:16.747Z,42.48
2018-04-24T16:10:45.134Z,42.54
2018-04-24T16:13:13.553Z,42.15
2018-04-24T16:15:41.919Z,41.93
2018-04-24T16:18:10.680Z,42.12
2018-04-24T16:20:39.039Z,41.80
2018-04-24T16:23:07.397Z,41.12
2018-04-24T16:25:35.852Z,41.46
2018-04-24T16:28:04.597Z,41.43
2018-04-24T16:30:32.947Z,41.54
2018-04-24T16:33:01.414Z,41.00
2018-04-24T16:35:29.874Z,41.12
2018-04-24T16:37:58.666Z,41.45
2018-04-24T16:40:27.444Z,41.27
2018-04-24T16:42:55.795Z,41.87
2018-04-24T16:45:24.150Z,41.41
2018-04-24T16:47:52.575Z,42.38
2018-04-24T16:50:21.349Z,41.80
2018-04-24T16:52:49.723Z,42.08
2018-04-24T16:55:18.093Z,42.03
2018-04-24T16:57:46.448Z,41.30
2018-04-24T17:00:14.837Z,41.65
2018-04-24T17:02:43.225Z,42.54
2018-04-24T17:05:11.580Z,41.90
2018-04-24T17:07:39.934Z,41.08
2018-04-24T17:10:08.741Z,42.49
2018-04-24T17:12:37.098Z,42.33
2018-04-24T17:15:05.554Z,42.06
2018-04-24T17:17:34.001Z,41.68
2018-04-24T17:20:02.415Z,41.78
2018-04-24T17:22:30.742Z,42.03
2018-04-24T17:24:59.132Z,41.93
2018-04-24T17:27:27.494Z,42.02
2018-04-24T17:29:55.922Z,42.12
2018-04-24T17:32:24.307Z,42.70
2018-04-24T17:34:52.758Z,42.97
2018-04-24T17:37:21.110Z,42.36
2018-04-24T17:39:49.486Z,43.33
2018-04-24T17:42:17.837Z,43.19
2018-04-24T17:44:46.644Z,42.66
2018-04-24T17:47:15.040Z,42.48
2018-04-24T17:49:43.404Z,43.02
2018-04-24T17:52:11.805Z,42.46
2018-04-24T17:54:40.419Z,43.41
2018-04-24T17:57:08.843Z,43.25
2018-04-24T17:59:37.169Z,44.10
2018-04-24T18:02:05.575Z,44.80
2018-04-24T18:04:33.971Z,44.35
2018-04-24T18:07:02.769Z,44.33
2018-04-24T18:09:31.231Z,44.22
2018-04-24T18:12:00.115Z,44.59
2018-04-24T18:14:28.475Z,44.48
2018-04-24T18:16:56.870Z,44.77
2018-04-24T18:19:25.247Z,44.77
2018-04-24T18:21:53.598Z,44.74
2018-04-24T18:24:21.965Z,44.67
2018-04-24T18:26:50.323Z,44.66
2018-04-24T18:29:18.685Z,44.80
2018-04-24T18:31:47.538Z,44.47
2018-04-24T18:34:15.886Z,44.13
2018-04-24T18:36:44.256Z,44.49
2018-04-24T18:39:12.656Z,44.55
2018-04-24T18:41:41.016Z,44.12
2018-04-24T18:44:09.382Z,44.99
2018-04-24T18:46:37.747Z,44.99
2018-04-24T18:49:06.660Z,44.74
2018-04-24T18:51:35.017Z,44.92
2018-04-24T18:54:03.845Z,45.51
2018-04-24T18:56:32.196Z,45.31
2018-04-24T18:59:00.554Z,45.88
2018-04-24T19:01:29.333Z,45.45
2018-04-24T19:03:58.087Z,45.60
2018-04-24T19:06:26.442Z,45.83
2018-04-24T19:08:55.455Z,46.01
2018-04-24T19:11:23.854Z,46.02
2018-04-24T19:13:52.220Z,45.88
2018-04-24T19:16:20.621Z,46.11
2018-04-24T19:18:54.466Z,45.95
2018-04-24T19:21:22.958Z,46.02
2018-04-24T19:23:51.312Z,45.92
2018-04-24T19:26:20.152Z,45.56
2018-04-24T19:28:48.571Z,45.72
2018-04-24T19:31:23.027Z,45.40
2018-04-24T19:33:51.337Z,45.43
2018-04-24T19:36:19.749Z,45.53
2018-04-24T19:38:54.049Z,45.66
2018-04-24T19:41:28.013Z,45.40
2018-04-24T19:43:56.405Z,45.64
2018-04-24T19:46:24.766Z,45.61
2018-04-24T19:48:58.551Z,45.48
2018-04-24T19:51:27.395Z,44.92
2018-04-24T19:53:55.786Z,44.98
2018-04-24T19:56:24.258Z,45.01
2018-04-24T19:58:52.654Z,45.06
2018-04-24T20:01:21.113Z,44.99
2018-04-24T20:03:49.544Z,45.23
2018-04-24T20:06:18.289Z,45.27
2018-04-24T20:08:46.657Z,44.99
2018-04-24T20:11:18.149Z,44.91
2018-04-24T20:13:46.902Z,45.21
2018-04-24T20:16:15.287Z,45.16
2018-04-24T20:18:43.636Z,45.52
2018-04-24T20:21:11.997Z,45.80
2018-04-24T20:23:40.381Z,45.61
2018-04-24T20:26:08.756Z,45.63
2018-04-24T20:28:37.115Z,45.73
2018-04-24T20:31:05.531Z,46.12
2018-04-24T20:33:33.891Z,46.26
2018-04-24T20:36:02.246Z,46.91
2018-04-24T20:38:31.132Z,46.68
2018-04-24T20:40:59.886Z,46.71
2018-04-24T20:43:28.248Z,47.09
2018-04-24T20:45:56.625Z,47.18
2018-04-24T20:48:25.047Z,47.06
2018-04-24T20:50:53.418Z,46.53
2018-04-24T20:53:21.910Z,46.29
2018-04-24T20:55:50.289Z,46.28
2018-04-24T20:58:18.760Z,46.12
2018-04-24T21:00:47.254Z,46.06
2018-04-24T21:03:16.015Z,45.99
2018-04-24T21:05:44.422Z,45.72
2018-04-24T21:08:12.873Z,45.90
2018-04-24T21:10:41.281Z,45.89
2018-04-24T21:13:10.154Z,46.00
2018-04-24T21:15:38.535Z,45.83
2018-04-24T21:18:06.889Z,45.86
2018-04-24T21:20:35.255Z,45.76
2018-04-24T21:23:03.682Z,45.67
2018-04-24T21:25:32.047Z,45.59
2018-04-24T21:28:00.427Z,46.05
2018-04-24T21:30:28.905Z,45.63
2018-04-24T21:32:57.269Z,45.89
2018-04-24T21:35:25.676Z,46.06
2018-04-24T21:37:54.127Z,46.70
2018-04-24T21:40:22.506Z,46.92
2018-04-24T21:42:50.886Z,46.72
2018-04-24T21:45:19.385Z,46.83
2018-04-24T21:47:47.854Z,47.06
2018-04-24T21:50:16.219Z,47.47
2018-04-24T21:52:44.615Z,47.69
2018-04-24T21:55:12.986Z,47.17
2018-04-24T21:57:41.350Z,47.46
2018-04-24T22:00:09.745Z,46.94
2018-04-24T22:02:38.101Z,46.76
2018-04-24T22:05:06.463Z,46.94
2018-04-24T22:07:34.845Z,46.82
2018-04-24T22:10:03.221Z,47.09
2018-04-24T22:12:31.577Z,47.37
2018-04-24T22:15:00.353Z,47.59
2018-04-24T22:17:28.811Z,47.22
2018-04-24T22:19:57.182Z,46.99
2018-04-24T22:22:25.600Z,46.94
2018-04-24T22:24:54.038Z,46.41
2018-04-24T22:27:22.421Z,46.83
2018-04-24T22:29:50.906Z,46.41
2018-04-24T22:32:19.278Z,46.35
2018-04-24T22:34:47.646Z,46.20
2018-04-24T22:37:16.043Z,46.28
2018-04-24T22:39:44.404Z,46.88
2018-04-24T22:42:12.801Z,47.59
2018-04-24T22:44:41.194Z,47.90
2018-04-24T22:47:09.582Z,47.31
2018-04-24T22:49:37.949Z,47.67
2018-04-24T22:52:06.352Z,47.96
2018-04-24T22:54:35.114Z,47.93
2018-04-24T22:57:03.465Z,48.49
2018-04-24T22:59:31.844Z,49.36
2018-04-24T23:02:00.199Z,50.33
2018-04-24T23:04:28.559Z,50.41
2018-04-24T23:06:57.338Z,51.27
2018-04-24T23:09:25.798Z,51.28
2018-04-24T23:12:12.061Z,51.82
2018-04-24T23:14:58.428Z,52.11
2018-04-24T23:17:44.785Z,53.22
2018-04-24T23:20:16.191Z,54.60
2018-04-24T23:22:44.958Z,54.85
2018-04-24T23:25:13.319Z,54.93
2018-04-24T23:27:41.680Z,54.71
2018-04-24T23:30:10.153Z,55.54
2018-04-24T23:32:38.512Z,55.92
2018-04-24T23:35:06.879Z,56.33
2018-04-24T23:37:35.272Z,55.61
2018-04-24T23:40:03.636Z,56.12
2018-04-24T23:42:31.987Z,56.17
2018-04-24T23:45:00.370Z,56.08
2018-04-24T23:47:28.730Z,56.94
2018-04-24T23:49:57.194Z,57.02
2018-04-24T23:52:25.578Z,57.11
2018-04-24T23:54:53.951Z,57.38
2018-04-24T23:57:22.408Z,58.09
2018-04-24T23:59:50.804Z,57.81
